Time,TemperatureF,DewpointF,PressureIn,WindDirection,WindDirectionDegrees,WindSpeedMPH,WindSpeedGustMPH,Humidity,HourlyPrecipIn,Conditions,Clouds,dailyrainin,SoftwareType,DateUTC
2013-10-02 00:00:00,65.1,62.7,30.14,WSW,252,0.0,9.0,92,0.00,,,0.00,Wunderground v.1.15,2013-10-02 04:00:00,
2013-10-02 00:05:00,65.0,62.6,30.14,WSW,252,0.0,9.0,92,0.00,,,0.00,Wunderground v.1.15,2013-10-02 04:05:00,
2013-10-02 00:10:00,64.8,62.7,30.14,WSW,252,0.0,9.0,93,0.00,,,0.00,Wunderground v.1.15,2013-10-02 04:10:00,
2013-10-02 00:15:00,64.7,62.6,30.14,WSW,252,0.0,9.0,93,0.00,,,0.00,Wunderground v.1.15,2013-10-02 04:15:00,
2013-10-02 00:26:00,64.4,62.3,30.14,WSW,252,0.0,9.0,93,0.00,,,0.00,Wunderground v.1.15,2013-10-02 04:26:00,
2013-10-02 00:30:00,64.4,62.6,30.14,WSW,252,0.0,9.0,94,0.00,,,0.00,Wunderground v.1.15,2013-10-02 04:30:00,
2013-10-02 00:35:00,64.4,62.6,30.14,WSW,252,0.0,9.0,94,0.00,,,0.00,Wunderground v.1.15,2013-10-02 04:35:00,
2013-10-02 00:45:00,64.2,62.4,30.14,WSW,252,0.0,9.0,94,0.00,,,0.00,Wunderground v.1.15,2013-10-02 04:45:00,
2013-10-02 00:50:00,64.2,62.4,30.14,WSW,252,0.0,9.0,94,0.00,,,0.00,Wunderground v.1.15,2013-10-02 04:50:00,
2013-10-02 00:55:00,64.1,62.3,30.14,WSW,252,0.0,9.0,94,0.00,,,0.00,Wunderground v.1.15,2013-10-02 04:55:00,
2013-10-02 01:01:00,64.1,62.3,30.14,WSW,252,0.0,9.0,94,0.00,,,0.00,Wunderground v.1.15,2013-10-02 05:01:00,
2013-10-02 01:10:00,64.0,62.2,30.14,WSW,252,0.0,9.0,94,0.00,,,0.00,Wunderground v.1.15,2013-10-02 05:10:00,
2013-10-02 01:20:00,63.8,62.0,30.14,WSW,252,0.0,9.0,94,0.00,,,0.00,Wunderground v.1.15,2013-10-02 05:20:00,
2013-10-02 01:25:00,63.8,62.0,30.14,WSW,252,0.0,9.0,94,0.00,,,0.00,Wunderground v.1.15,2013-10-02 05:25:00,
2013-10-02 01:30:00,63.7,61.9,30.14,WSW,252,0.0,9.0,94,0.00,,,0.00,Wunderground v.1.15,2013-10-02 05:30:00,
2013-10-02 01:35:00,63.7,61.9,30.14,WSW,252,0.0,9.0,94,0.00,,,0.00,Wunderground v.1.15,2013-10-02 05:35:00,
2013-10-02 01:45:00,63.7,62.2,30.14,WSW,252,0.0,9.0,95,0.00,,,0.00,Wunderground v.1.15,2013-10-02 05:45:00,
2013-10-02 01:50:00,63.6,62.1,30.14,WSW,252,0.0,9.0,95,0.00,,,0.00,Wunderground v.1.15,2013-10-02 05:50:00,
2013-10-02 02:01:00,63.5,62.0,30.14,WSW,252,0.0,9.0,95,0.00,,,0.00,Wunderground v.1.15,2013-10-02 06:01:00,
2013-10-02 02:05:00,63.4,61.9,30.15,WSW,252,0.0,9.0,95,0.00,,,0.00,Wunderground v.1.15,2013-10-02 06:05:00,
2013-10-02 02:10:00,63.3,61.8,30.15,WSW,252,0.0,9.0,95,0.00,,,0.00,Wunderground v.1.15,2013-10-02 06:10:00,
2013-10-02 02:15:00,63.3,61.8,30.15,WSW,252,0.0,9.0,95,0.00,,,0.00,Wunderground v.1.15,2013-10-02 06:15:00,
2013-10-02 02:20:00,63.2,61.7,30.15,WSW,252,0.0,9.0,95,0.00,,,0.00,Wunderground v.1.15,2013-10-02 06:20:00,
2013-10-02 02:30:00,63.2,61.7,30.14,WSW,252,0.0,9.0,95,0.00,,,0.00,Wunderground v.1.15,2013-10-02 06:30:00,
2013-10-02 02:35:00,63.2,61.7,30.14,WSW,252,0.0,9.0,95,0.00,,,0.00,Wunderground v.1.15,2013-10-02 06:35:00,
2013-10-02 02:40:00,63.1,61.6,30.14,WSW,252,0.0,9.0,95,0.00,,,0.00,Wunderground v.1.15,2013-10-02 06:40:00,
2013-10-02 02:45:00,63.2,61.7,30.14,WSW,252,0.0,9.0,95,0.00,,,0.00,Wunderground v.1.15,2013-10-02 06:45:00,
2013-10-02 02:50:00,63.1,61.6,30.14,WSW,252,0.0,9.0,95,0.00,,,0.00,Wunderground v.1.15,2013-10-02 06:50:00,
2013-10-02 02:55:00,63.0,61.5,30.14,WSW,252,0.0,9.0,95,0.00,,,0.00,Wunderground v.1.15,2013-10-02 06:55:00,
2013-10-02 03:01:00,63.0,61.8,30.14,WSW,252,0.0,9.0,96,0.00,,,0.00,Wunderground v.1.15,2013-10-02 07:01:00,
2013-10-02 03:10:00,63.1,61.9,30.14,WSW,252,0.0,9.0,96,0.00,,,0.00,Wunderground v.1.15,2013-10-02 07:10:00,
2013-10-02 03:15:00,63.1,61.6,30.14,WSW,252,0.0,9.0,95,0.00,,,0.00,Wunderground v.1.15,2013-10-02 07:15:00,
2013-10-02 03:20:00,63.1,61.6,30.14,WSW,252,0.0,9.0,95,0.00,,,0.00,Wunderground v.1.15,2013-10-02 07:20:00,
2013-10-02 03:25:00,63.0,61.5,30.14,WSW,252,0.0,9.0,95,0.00,,,0.00,Wunderground v.1.15,2013-10-02 07:25:00,
2013-10-02 03:30:00,63.0,61.5,30.13,WSW,252,0.0,9.0,95,0.00,,,0.00,Wunderground v.1.15,2013-10-02 07:30:00,
2013-10-02 03:40:00,63.0,61.5,30.14,WSW,252,0.0,9.0,95,0.00,,,0.00,Wunderground v.1.15,2013-10-02 07:40:00,
2013-10-02 03:45:00,63.0,61.5,30.13,WSW,252,0.0,9.0,95,0.00,,,0.00,Wunderground v.1.15,2013-10-02 07:45:00,
2013-10-02 03:50:00,63.0,61.5,30.14,WSW,252,0.0,9.0,95,0.00,,,0.00,Wunderground v.1.15,2013-10-02 07:50:00,
2013-10-02 03:55:00,63.0,61.5,30.14,WSW,252,0.0,9.0,95,0.00,,,0.00,Wunderground v.1.15,2013-10-02 07:55:00,
2013-10-02 04:01:00,63.0,61.5,30.13,WSW,252,0.0,9.0,95,0.00,,,0.00,Wunderground v.1.15,2013-10-02 08:01:00,
2013-10-02 04:10:00,63.0,61.5,30.13,WSW,252,0.0,9.0,95,0.00,,,0.00,Wunderground v.1.15,2013-10-02 08:10:00,
2013-10-02 04:15:00,62.9,61.4,30.13,WSW,252,0.0,9.0,95,0.00,,,0.00,Wunderground v.1.15,2013-10-02 08:15:00,
2013-10-02 04:20:00,62.9,61.4,30.13,WSW,252,0.0,9.0,95,0.00,,,0.00,Wunderground v.1.15,2013-10-02 08:20:00,
2013-10-02 04:25:00,62.7,61.2,30.14,WSW,252,0.0,9.0,95,0.00,,,0.00,Wunderground v.1.15,2013-10-02 08:25:00,
2013-10-02 04:30:00,62.7,61.2,30.14,WSW,252,0.0,9.0,95,0.00,,,0.00,Wunderground v.1.15,2013-10-02 08:30:00,
2013-10-02 04:35:00,62.6,61.1,30.14,WSW,252,0.0,9.0,95,0.00,,,0.00,Wunderground v.1.15,2013-10-02 08:35:00,
2013-10-02 04:40:00,62.5,61.3,30.14,WSW,252,0.0,9.0,96,0.00,,,0.00,Wunderground v.1.15,2013-10-02 08:40:00,
2013-10-02 04:45:00,62.5,61.3,30.14,WSW,252,0.0,9.0,96,0.00,,,0.00,Wunderground v.1.15,2013-10-02 08:45:00,
2013-10-02 04:50:00,62.5,61.3,30.14,WSW,252,0.0,9.0,96,0.00,,,0.00,Wunderground v.1.15,2013-10-02 08:50:00,
2013-10-02 04:55:00,62.5,61.3,30.14,WSW,252,0.0,9.0,96,0.00,,,0.00,Wunderground v.1.15,2013-10-02 08:55:00,
2013-10-02 05:01:00,62.6,61.4,30.14,WSW,252,0.0,9.0,96,0.00,,,0.00,Wunderground v.1.15,2013-10-02 09:01:00,
2013-10-02 05:05:00,62.6,61.4,30.14,WSW,252,0.0,9.0,96,0.00,,,0.00,Wunderground v.1.15,2013-10-02 09:05:00,
2013-10-02 05:10:00,62.5,61.3,30.14,WSW,252,0.0,9.0,96,0.00,,,0.00,Wunderground v.1.15,2013-10-02 09:10:00,
2013-10-02 05:15:00,62.5,61.3,30.14,WSW,252,0.0,9.0,96,0.00,,,0.00,Wunderground v.1.15,2013-10-02 09:15:00,
2013-10-02 05:20:00,62.3,61.1,30.14,WSW,252,0.0,9.0,96,0.00,,,0.00,Wunderground v.1.15,2013-10-02 09:20:00,
2013-10-02 05:25:00,62.2,61.0,30.14,WSW,252,0.0,9.0,96,0.00,,,0.00,Wunderground v.1.15,2013-10-02 09:25:00,
2013-10-02 05:30:00,62.1,60.9,30.14,WSW,252,0.0,9.0,96,0.00,,,0.00,Wunderground v.1.15,2013-10-02 09:30:00,
2013-10-02 05:35:00,62.0,60.8,30.15,WSW,252,0.0,9.0,96,0.00,,,0.00,Wunderground v.1.15,2013-10-02 09:35:00,
2013-10-02 05:40:00,61.9,60.7,30.14,WSW,252,0.0,9.0,96,0.00,,,0.00,Wunderground v.1.15,2013-10-02 09:40:00,
2013-10-02 05:45:00,61.8,60.6,30.15,WSW,252,0.0,9.0,96,0.00,,,0.00,Wunderground v.1.15,2013-10-02 09:45:00,
2013-10-02 05:50:00,61.8,60.9,30.15,WSW,252,0.0,9.0,97,0.00,,,0.00,Wunderground v.1.15,2013-10-02 09:50:00,
2013-10-02 05:55:00,61.7,60.8,30.15,WSW,252,0.0,9.0,97,0.00,,,0.00,Wunderground v.1.15,2013-10-02 09:55:00,
2013-10-02 06:00:00,61.6,60.7,30.15,WSW,252,0.0,9.0,97,0.00,,,0.00,Wunderground v.1.15,2013-10-02 10:00:00,
2013-10-02 06:05:00,61.7,60.8,30.15,WSW,252,0.0,9.0,97,0.00,,,0.00,Wunderground v.1.15,2013-10-02 10:05:00,
2013-10-02 06:10:00,61.7,60.8,30.16,WSW,252,0.0,9.0,97,0.00,,,0.00,Wunderground v.1.15,2013-10-02 10:10:00,
2013-10-02 06:15:00,61.6,60.7,30.16,WSW,252,0.0,9.0,97,0.00,,,0.00,Wunderground v.1.15,2013-10-02 10:15:00,
2013-10-02 06:20:00,61.6,60.7,30.16,WSW,252,0.0,9.0,97,0.00,,,0.00,Wunderground v.1.15,2013-10-02 10:20:00,
2013-10-02 06:26:00,61.5,60.6,30.16,WSW,252,0.0,9.0,97,0.00,,,0.00,Wunderground v.1.15,2013-10-02 10:26:00,
2013-10-02 06:35:00,61.4,60.5,30.16,WSW,252,0.0,9.0,97,0.00,,,0.00,Wunderground v.1.15,2013-10-02 10:35:00,
2013-10-02 06:40:00,61.4,60.5,30.16,WSW,252,0.0,9.0,97,0.00,,,0.00,Wunderground v.1.15,2013-10-02 10:40:00,
2013-10-02 06:45:00,61.3,60.4,30.16,WSW,252,0.0,9.0,97,0.00,,,0.00,Wunderground v.1.15,2013-10-02 10:45:00,
2013-10-02 06:50:00,61.2,60.3,30.16,WSW,252,0.0,9.0,97,0.00,,,0.00,Wunderground v.1.15,2013-10-02 10:50:00,
2013-10-02 06:55:00,61.1,60.2,30.17,WSW,252,0.0,9.0,97,0.00,,,0.00,Wunderground v.1.15,2013-10-02 10:55:00,
2013-10-02 07:00:00,61.0,60.4,30.17,WSW,252,0.0,9.0,98,0.00,,,0.00,Wunderground v.1.15,2013-10-02 11:00:00,
2013-10-02 07:10:00,60.9,60.3,30.17,WSW,252,0.0,9.0,98,0.00,,,0.00,Wunderground v.1.15,2013-10-02 11:10:00,
2013-10-02 07:16:00,60.9,60.3,30.17,WSW,252,0.0,9.0,98,0.00,,,0.00,Wunderground v.1.15,2013-10-02 11:16:00,
2013-10-02 07:20:00,60.9,60.3,30.17,WSW,252,0.0,9.0,98,0.00,,,0.00,Wunderground v.1.15,2013-10-02 11:20:00,
2013-10-02 07:25:00,60.8,60.2,30.17,WSW,252,0.0,9.0,98,0.00,,,0.00,Wunderground v.1.15,2013-10-02 11:25:00,
2013-10-02 07:30:00,60.8,60.2,30.17,WSW,252,0.0,9.0,98,0.00,,,0.00,Wunderground v.1.15,2013-10-02 11:30:00,
2013-10-02 07:35:00,60.9,60.3,30.17,WSW,252,0.0,9.0,98,0.00,,,0.00,Wunderground v.1.15,2013-10-02 11:35:00,
2013-10-02 07:40:00,60.9,60.3,30.17,WSW,252,0.0,9.0,98,0.00,,,0.00,Wunderground v.1.15,2013-10-02 11:40:00,
2013-10-02 07:45:00,60.9,60.3,30.17,WSW,252,0.0,9.0,98,0.00,,,0.00,Wunderground v.1.15,2013-10-02 11:45:00,
2013-10-02 07:50:00,60.9,60.3,30.18,WSW,252,0.0,9.0,98,0.00,,,0.00,Wunderground v.1.15,2013-10-02 11:50:00,
2013-10-02 07:55:00,60.9,60.3,30.18,WSW,252,0.0,9.0,98,0.00,,,0.00,Wunderground v.1.15,2013-10-02 11:55:00,
2013-10-02 08:01:00,60.9,60.3,30.18,WSW,252,0.0,9.0,98,0.00,,,0.00,Wunderground v.1.15,2013-10-02 12:01:00,
2013-10-02 08:05:00,60.8,60.2,30.18,WSW,252,0.0,9.0,98,0.00,,,0.00,Wunderground v.1.15,2013-10-02 12:05:00,
2013-10-02 08:10:00,60.7,60.1,30.18,WSW,252,0.0,9.0,98,0.00,,,0.00,Wunderground v.1.15,2013-10-02 12:10:00,
2013-10-02 08:20:00,60.7,60.1,30.19,WSW,252,0.0,9.0,98,0.00,,,0.00,Wunderground v.1.15,2013-10-02 12:20:00,
2013-10-02 08:25:00,60.8,60.2,30.19,WSW,252,0.0,9.0,98,0.00,,,0.00,Wunderground v.1.15,2013-10-02 12:25:00,
2013-10-02 08:30:00,60.9,60.3,30.19,WSW,252,0.0,9.0,98,0.00,,,0.00,Wunderground v.1.15,2013-10-02 12:30:00,
2013-10-02 08:35:00,61.0,60.4,30.19,WSW,252,0.0,9.0,98,0.00,,,0.00,Wunderground v.1.15,2013-10-02 12:35:00,
2013-10-02 08:40:00,61.2,60.6,30.19,WSW,252,0.0,9.0,98,0.00,,,0.00,Wunderground v.1.15,2013-10-02 12:40:00,
2013-10-02 08:45:00,61.5,60.9,30.19,WSW,252,0.0,9.0,98,0.00,,,0.00,Wunderground v.1.15,2013-10-02 12:45:00,
2013-10-02 08:50:00,61.7,61.1,30.20,WSW,252,0.0,9.0,98,0.00,,,0.00,Wunderground v.1.15,2013-10-02 12:50:00,
2013-10-02 08:55:00,62.0,61.4,30.20,WSW,252,0.0,9.0,98,0.00,,,0.00,Wunderground v.1.15,2013-10-02 12:55:00,
2013-10-02 09:01:00,62.3,61.7,30.20,WSW,252,0.0,9.0,98,0.00,,,0.00,Wunderground v.1.15,2013-10-02 13:01:00,
2013-10-02 09:05:00,62.7,62.1,30.20,WSW,252,0.0,9.0,98,0.00,,,0.00,Wunderground v.1.15,2013-10-02 13:05:00,
2013-10-02 09:10:00,63.1,62.2,30.20,WSW,252,0.0,9.0,97,0.00,,,0.00,Wunderground v.1.15,2013-10-02 13:10:00,
2013-10-02 09:15:00,63.6,62.7,30.20,WSW,252,0.0,9.0,97,0.00,,,0.00,Wunderground v.1.15,2013-10-02 13:15:00,
2013-10-02 09:20:00,63.9,63.0,30.20,WSW,252,0.0,9.0,97,0.00,,,0.00,Wunderground v.1.15,2013-10-02 13:20:00,
2013-10-02 09:25:00,64.2,63.0,30.20,WSW,252,0.0,9.0,96,0.00,,,0.00,Wunderground v.1.15,2013-10-02 13:25:00,
2013-10-02 09:31:00,64.7,63.2,30.20,WSW,252,0.0,9.0,95,0.00,,,0.00,Wunderground v.1.15,2013-10-02 13:31:00,
2013-10-02 09:35:00,65.2,63.4,30.20,WSW,252,1.0,9.0,94,0.00,,,0.00,Wunderground v.1.15,2013-10-02 13:35:00,
2013-10-02 09:40:00,65.6,63.5,30.20,WSW,242,1.0,1.0,93,0.00,,,0.00,Wunderground v.1.15,2013-10-02 13:40:00,
2013-10-02 09:45:00,65.9,63.8,30.20,SW,236,1.0,9.0,93,0.00,,,0.00,Wunderground v.1.15,2013-10-02 13:45:00,
2013-10-02 09:50:00,66.1,63.7,30.20,WSW,248,0.0,9.0,92,0.00,,,0.00,Wunderground v.1.15,2013-10-02 13:50:00,
2013-10-02 09:55:00,66.2,63.8,30.20,WSW,245,0.0,9.0,92,0.00,,,0.00,Wunderground v.1.15,2013-10-02 13:55:00,
2013-10-02 10:01:00,66.4,64.0,30.20,WSW,245,0.0,9.0,92,0.00,,,0.00,Wunderground v.1.15,2013-10-02 14:01:00,
2013-10-02 10:05:00,66.7,64.3,30.20,WSW,245,0.0,9.0,92,0.00,,,0.00,Wunderground v.1.15,2013-10-02 14:05:00,
2013-10-02 10:10:00,67.1,64.4,30.20,SSW,202,0.0,9.0,91,0.00,,,0.00,Wunderground v.1.15,2013-10-02 14:10:00,
2013-10-02 10:15:00,67.3,64.3,30.20,SW,226,0.0,9.0,90,0.00,,,0.00,Wunderground v.1.15,2013-10-02 14:15:00,
2013-10-02 10:20:00,67.4,64.4,30.20,SW,222,0.0,9.0,90,0.00,,,0.00,Wunderground v.1.15,2013-10-02 14:20:00,
2013-10-02 10:25:00,67.6,64.6,30.20,WSW,238,0.0,9.0,90,0.00,,,0.00,Wunderground v.1.15,2013-10-02 14:25:00,
2013-10-02 10:30:00,67.7,64.7,30.20,SW,217,0.0,9.0,90,0.00,,,0.00,Wunderground v.1.15,2013-10-02 14:30:00,
2013-10-02 10:36:00,68.3,65.6,30.20,SSW,205,0.0,9.0,91,0.00,,,0.00,Wunderground v.1.15,2013-10-02 14:36:00,
2013-10-02 10:40:00,68.6,65.2,30.20,WSW,238,0.0,9.0,89,0.00,,,0.00,Wunderground v.1.15,2013-10-02 14:40:00,
2013-10-02 10:45:00,68.8,65.1,30.20,SW,224,0.0,9.0,88,0.00,,,0.00,Wunderground v.1.15,2013-10-02 14:45:00,
2013-10-02 10:50:00,69.1,65.7,30.20,SW,223,0.0,9.0,89,0.00,,,0.00,Wunderground v.1.15,2013-10-02 14:50:00,
2013-10-02 10:55:00,69.5,65.8,30.20,SW,223,0.0,9.0,88,0.00,,,0.00,Wunderground v.1.15,2013-10-02 14:55:00,
2013-10-02 11:01:00,69.7,65.7,30.20,WNW,284,0.0,9.0,87,0.00,,,0.00,Wunderground v.1.15,2013-10-02 15:01:00,
2013-10-02 11:05:00,70.1,66.0,30.20,WNW,293,0.0,9.0,87,0.00,,,0.00,Wunderground v.1.15,2013-10-02 15:05:00,
2013-10-02 11:10:00,70.5,66.1,30.19,WNW,293,0.0,9.0,86,0.00,,,0.00,Wunderground v.1.15,2013-10-02 15:10:00,
2013-10-02 11:15:00,71.4,67.7,30.19,WSW,251,0.0,9.0,88,0.00,,,0.00,Wunderground v.1.15,2013-10-02 15:15:00,
2013-10-02 11:20:00,71.8,67.0,30.19,SSW,203,0.0,9.0,85,0.00,,,0.00,Wunderground v.1.15,2013-10-02 15:20:00,
2013-10-02 11:25:00,72.1,67.0,30.19,SW,229,0.0,9.0,84,0.00,,,0.00,Wunderground v.1.15,2013-10-02 15:25:00,
2013-10-02 11:30:00,72.5,67.7,30.19,WSW,246,0.0,9.0,85,0.00,,,0.00,Wunderground v.1.15,2013-10-02 15:30:00,
2013-10-02 11:35:00,73.1,68.3,30.18,WSW,251,0.0,9.0,85,0.00,,,0.00,Wunderground v.1.15,2013-10-02 15:35:00,
2013-10-02 11:45:00,74.6,68.4,30.19,WNW,292,0.0,9.0,81,0.00,,,0.00,Wunderground v.1.15,2013-10-02 15:45:00,
2013-10-02 11:55:00,76.4,70.5,30.18,NE,54,0.0,9.0,82,0.00,,,0.00,Wunderground v.1.15,2013-10-02 15:55:00,
2013-10-02 12:01:00,78.1,71.1,30.18,ENE,57,0.0,9.0,79,0.00,,,0.00,Wunderground v.1.15,2013-10-02 16:01:00,
2013-10-02 12:05:00,78.5,70.3,30.18,WSW,251,0.0,9.0,76,0.00,,,0.00,Wunderground v.1.15,2013-10-02 16:05:00,
2013-10-02 12:10:00,77.8,69.6,30.18,West,264,0.0,9.0,76,0.00,,,0.00,Wunderground v.1.15,2013-10-02 16:10:00,
2013-10-02 12:15:00,77.3,69.5,30.18,West,265,1.0,9.0,77,0.00,,,0.00,Wunderground v.1.15,2013-10-02 16:15:00,
2013-10-02 12:20:00,77.6,70.2,30.18,SSE,163,1.0,1.0,78,0.00,,,0.00,Wunderground v.1.15,2013-10-02 16:20:00,
2013-10-02 12:25:00,78.0,69.8,30.18,West,267,1.0,5.0,76,0.00,,,0.00,Wunderground v.1.15,2013-10-02 16:25:00,
2013-10-02 12:30:00,77.2,70.2,30.17,SSW,196,2.0,2.0,79,0.00,,,0.00,Wunderground v.1.15,2013-10-02 16:30:00,
2013-10-02 12:35:00,78.2,70.4,30.17,SSE,152,1.0,9.0,77,0.00,,,0.00,Wunderground v.1.15,2013-10-02 16:35:00,
2013-10-02 12:40:00,79.6,71.4,30.17,SSE,160,0.0,9.0,76,0.00,,,0.00,Wunderground v.1.15,2013-10-02 16:40:00,
2013-10-02 12:45:00,80.6,70.7,30.17,ENE,64,0.0,9.0,72,0.00,,,0.00,Wunderground v.1.15,2013-10-02 16:45:00,
2013-10-02 12:50:00,81.7,73.0,30.17,NW,324,0.0,9.0,75,0.00,,,0.00,Wunderground v.1.15,2013-10-02 16:50:00,
2013-10-02 12:55:00,81.3,71.0,30.17,WSW,257,1.0,9.0,71,0.00,,,0.00,Wunderground v.1.15,2013-10-02 16:55:00,
2013-10-02 13:01:00,80.5,70.2,30.17,ENE,63,1.0,1.0,71,0.00,,,0.00,Wunderground v.1.15,2013-10-02 17:01:00,
2013-10-02 13:05:00,81.4,71.9,30.17,South,181,1.0,9.0,73,0.00,,,0.00,Wunderground v.1.15,2013-10-02 17:05:00,
2013-10-02 13:10:00,80.9,70.2,30.16,SSW,212,1.0,1.0,70,0.00,,,0.00,Wunderground v.1.15,2013-10-02 17:10:00,
2013-10-02 13:15:00,81.2,70.5,30.16,NW,304,1.0,9.0,70,0.00,,,0.00,Wunderground v.1.15,2013-10-02 17:15:00,
2013-10-02 13:20:00,80.7,70.0,30.16,WSW,245,0.0,9.0,70,0.00,,,0.00,Wunderground v.1.15,2013-10-02 17:20:00,
2013-10-02 13:25:00,80.1,70.7,30.16,West,267,0.0,9.0,73,0.00,,,0.00,Wunderground v.1.15,2013-10-02 17:25:00,
2013-10-02 13:30:00,80.0,70.2,30.15,NW,318,0.0,9.0,72,0.00,,,0.00,Wunderground v.1.15,2013-10-02 17:30:00,
2013-10-02 13:35:00,79.7,69.0,30.15,SSW,201,1.0,9.0,70,0.00,,,0.00,Wunderground v.1.15,2013-10-02 17:35:00,
2013-10-02 13:40:00,79.6,69.4,30.15,NW,313,1.0,1.0,71,0.00,,,0.00,Wunderground v.1.15,2013-10-02 17:40:00,
2013-10-02 13:45:00,80.3,70.0,30.15,West,263,1.0,9.0,71,0.00,,,0.00,Wunderground v.1.15,2013-10-02 17:45:00,
2013-10-02 13:50:00,80.8,69.7,30.14,SW,223,1.0,9.0,69,0.00,,,0.00,Wunderground v.1.15,2013-10-02 17:50:00,
2013-10-02 13:55:00,80.9,70.6,30.14,SW,235,2.0,9.0,71,0.00,,,0.00,Wunderground v.1.15,2013-10-02 17:55:00,
2013-10-02 14:01:00,81.2,70.5,30.14,SW,216,1.0,9.0,70,0.00,,,0.00,Wunderground v.1.15,2013-10-02 18:01:00,
2013-10-02 14:11:00,81.9,70.7,30.14,SW,230,1.0,1.0,69,0.00,,,0.00,Wunderground v.1.15,2013-10-02 18:11:00,
2013-10-02 14:20:00,81.5,69.0,30.13,West,261,2.0,2.0,66,0.00,,,0.00,Wunderground v.1.15,2013-10-02 18:20:00,
2013-10-02 14:25:00,81.6,70.0,30.13,SW,218,2.0,9.0,68,0.00,,,0.00,Wunderground v.1.15,2013-10-02 18:25:00,
2013-10-02 14:30:00,81.5,69.5,30.12,South,181,1.0,1.0,67,0.00,,,0.00,Wunderground v.1.15,2013-10-02 18:30:00,
2013-10-02 14:35:00,82.2,69.7,30.12,SSW,194,1.0,9.0,66,0.00,,,0.00,Wunderground v.1.15,2013-10-02 18:35:00,
2013-10-02 14:40:00,82.9,70.8,30.12,SW,216,1.0,9.0,67,0.00,,,0.00,Wunderground v.1.15,2013-10-02 18:40:00,
2013-10-02 14:50:00,81.5,68.6,30.12,WSW,250,3.0,9.0,65,0.00,,,0.00,Wunderground v.1.15,2013-10-02 18:50:00,
2013-10-02 14:55:00,81.2,68.8,30.11,WNW,290,2.0,9.0,66,0.00,,,0.00,Wunderground v.1.15,2013-10-02 18:55:00,
2013-10-02 15:01:00,81.4,68.9,30.11,SW,232,2.0,2.0,66,0.00,,,0.00,Wunderground v.1.15,2013-10-02 19:01:00,
2013-10-02 15:05:00,81.2,68.8,30.11,WSW,240,2.0,9.0,66,0.00,,,0.00,Wunderground v.1.15,2013-10-02 19:05:00,
2013-10-02 15:10:00,81.8,70.2,30.11,SSE,168,1.0,1.0,68,0.00,,,0.00,Wunderground v.1.15,2013-10-02 19:10:00,
2013-10-02 15:15:00,81.9,69.9,30.11,SSW,207,0.0,9.0,67,0.00,,,0.00,Wunderground v.1.15,2013-10-02 19:15:00,
2013-10-02 15:20:00,81.6,69.6,30.11,WSW,241,0.0,9.0,67,0.00,,,0.00,Wunderground v.1.15,2013-10-02 19:20:00,
2013-10-02 15:25:00,81.6,69.1,30.11,WSW,244,1.0,9.0,66,0.00,,,0.00,Wunderground v.1.15,2013-10-02 19:25:00,
2013-10-02 15:30:00,82.4,69.9,30.11,SSW,210,0.0,9.0,66,0.00,,,0.00,Wunderground v.1.15,2013-10-02 19:30:00,
2013-10-02 15:35:00,83.2,71.1,30.11,South,186,0.0,9.0,67,0.00,,,0.00,Wunderground v.1.15,2013-10-02 19:35:00,
2013-10-02 15:40:00,84.0,70.5,30.10,South,173,0.0,9.0,64,0.00,,,0.00,Wunderground v.1.15,2013-10-02 19:40:00,
2013-10-02 15:45:00,83.9,70.0,30.10,SW,232,0.0,9.0,63,0.00,,,0.00,Wunderground v.1.15,2013-10-02 19:45:00,
2013-10-02 15:50:00,83.4,69.9,30.10,SW,231,0.0,9.0,64,0.00,,,0.00,Wunderground v.1.15,2013-10-02 19:50:00,
2013-10-02 15:55:00,83.2,69.8,30.10,SW,231,0.0,9.0,64,0.00,,,0.00,Wunderground v.1.15,2013-10-02 19:55:00,
2013-10-02 16:01:00,83.2,69.8,30.10,SW,219,0.0,9.0,64,0.00,,,0.00,Wunderground v.1.15,2013-10-02 20:01:00,
2013-10-02 16:05:00,83.2,68.3,30.10,SW,228,0.0,9.0,61,0.00,,,0.00,Wunderground v.1.15,2013-10-02 20:05:00,
2013-10-02 16:10:00,83.3,69.4,30.10,WNW,299,0.0,9.0,63,0.00,,,0.00,Wunderground v.1.15,2013-10-02 20:10:00,
2013-10-02 16:15:00,83.4,69.9,30.10,SW,236,0.0,9.0,64,0.00,,,0.00,Wunderground v.1.15,2013-10-02 20:15:00,
2013-10-02 16:20:00,83.1,69.2,30.10,WSW,240,0.0,9.0,63,0.00,,,0.00,Wunderground v.1.15,2013-10-02 20:20:00,
2013-10-02 16:25:00,82.5,68.2,30.10,WSW,239,1.0,9.0,62,0.00,,,0.00,Wunderground v.1.15,2013-10-02 20:25:00,
2013-10-02 16:30:00,82.0,68.6,30.10,SW,217,2.0,9.0,64,0.00,,,0.00,Wunderground v.1.15,2013-10-02 20:30:00,
2013-10-02 16:35:00,81.3,68.4,30.10,WSW,238,2.0,9.0,65,0.00,,,0.00,Wunderground v.1.15,2013-10-02 20:35:00,
2013-10-02 16:40:00,81.0,68.6,30.10,West,266,1.0,1.0,66,0.00,,,0.00,Wunderground v.1.15,2013-10-02 20:40:00,
2013-10-02 16:45:00,80.9,69.8,30.10,SW,223,1.0,9.0,69,0.00,,,0.00,Wunderground v.1.15,2013-10-02 20:45:00,
2013-10-02 16:50:00,80.9,69.3,30.10,SW,236,0.0,9.0,68,0.00,,,0.00,Wunderground v.1.15,2013-10-02 20:50:00,
2013-10-02 16:55:00,81.0,68.6,30.10,South,188,1.0,9.0,66,0.00,,,0.00,Wunderground v.1.15,2013-10-02 20:55:00,
2013-10-02 17:01:00,80.7,68.7,30.10,SW,219,1.0,1.0,67,0.00,,,0.00,Wunderground v.1.15,2013-10-02 21:01:00,
2013-10-02 17:05:00,80.4,68.9,30.10,SSW,212,1.0,9.0,68,0.00,,,0.00,Wunderground v.1.15,2013-10-02 21:05:00,
2013-10-02 17:10:00,80.3,68.8,30.10,SW,234,0.0,9.0,68,0.00,,,0.00,Wunderground v.1.15,2013-10-02 21:10:00,
2013-10-02 17:15:00,80.2,68.7,30.10,South,175,0.0,9.0,68,0.00,,,0.00,Wunderground v.1.15,2013-10-02 21:15:00,
2013-10-02 17:20:00,80.1,69.0,30.10,WSW,250,0.0,9.0,69,0.00,,,0.00,Wunderground v.1.15,2013-10-02 21:20:00,
2013-10-02 17:25:00,79.8,68.7,30.09,WSW,240,0.0,9.0,69,0.00,,,0.00,Wunderground v.1.15,2013-10-02 21:25:00,
2013-10-02 17:30:00,79.5,69.3,30.10,WSW,239,0.0,9.0,71,0.00,,,0.00,Wunderground v.1.15,2013-10-02 21:30:00,
2013-10-02 17:35:00,79.4,68.8,30.09,WSW,238,0.0,9.0,70,0.00,,,0.00,Wunderground v.1.15,2013-10-02 21:35:00,
2013-10-02 17:40:00,79.3,68.7,30.09,WSW,237,0.0,9.0,70,0.00,,,0.00,Wunderground v.1.15,2013-10-02 21:40:00,
2013-10-02 17:45:00,79.1,68.5,30.09,SSW,193,0.0,9.0,70,0.00,,,0.00,Wunderground v.1.15,2013-10-02 21:45:00,
2013-10-02 17:50:00,79.0,68.8,30.10,SSW,193,0.0,9.0,71,0.00,,,0.00,Wunderground v.1.15,2013-10-02 21:50:00,
2013-10-02 17:55:00,78.8,69.0,30.10,SSW,193,0.0,9.0,72,0.00,,,0.00,Wunderground v.1.15,2013-10-02 21:55:00,
2013-10-02 18:01:00,78.6,69.2,30.10,SSW,193,0.0,9.0,73,0.00,,,0.00,Wunderground v.1.15,2013-10-02 22:01:00,
2013-10-02 18:05:00,78.4,69.4,30.10,SSW,193,0.0,9.0,74,0.00,,,0.00,Wunderground v.1.15,2013-10-02 22:05:00,
2013-10-02 18:10:00,78.3,68.9,30.10,WSW,249,0.0,9.0,73,0.00,,,0.00,Wunderground v.1.15,2013-10-02 22:10:00,
2013-10-02 18:15:00,78.1,69.1,30.10,WSW,246,0.0,9.0,74,0.00,,,0.00,Wunderground v.1.15,2013-10-02 22:15:00,
2013-10-02 18:21:00,78.0,69.0,30.10,WSW,238,0.0,9.0,74,0.00,,,0.00,Wunderground v.1.15,2013-10-02 22:21:00,
2013-10-02 18:25:00,78.0,69.0,30.10,WSW,238,0.0,9.0,74,0.00,,,0.00,Wunderground v.1.15,2013-10-02 22:25:00,
2013-10-02 18:30:00,77.8,69.2,30.10,WSW,238,0.0,9.0,75,0.00,,,0.00,Wunderground v.1.15,2013-10-02 22:30:00,
2013-10-02 18:40:00,77.6,69.4,30.10,WSW,238,0.0,9.0,76,0.00,,,0.00,Wunderground v.1.15,2013-10-02 22:40:00,
2013-10-02 18:50:00,76.5,69.5,30.11,West,274,1.0,9.0,79,0.00,,,0.00,Wunderground v.1.15,2013-10-02 22:50:00,
2013-10-02 18:55:00,75.4,69.2,30.11,SSW,195,3.0,9.0,81,0.00,,,0.00,Wunderground v.1.15,2013-10-02 22:55:00,
2013-10-02 19:01:00,74.7,68.8,30.11,WNW,303,2.0,2.0,82,0.00,,,0.00,Wunderground v.1.15,2013-10-02 23:01:00,
2013-10-02 19:05:00,74.3,68.4,30.11,WNW,288,1.0,9.0,82,0.00,,,0.00,Wunderground v.1.15,2013-10-02 23:05:00,
2013-10-02 19:10:00,74.0,68.5,30.11,NNW,336,0.0,9.0,83,0.00,,,0.00,Wunderground v.1.15,2013-10-02 23:10:00,
2013-10-02 19:20:00,73.4,69.0,30.11,NW,323,0.0,9.0,86,0.00,,,0.00,Wunderground v.1.15,2013-10-02 23:20:00,
2013-10-02 19:25:00,73.2,69.1,30.11,NW,306,0.0,9.0,87,0.00,,,0.00,Wunderground v.1.15,2013-10-02 23:25:00,
2013-10-02 19:30:00,73.1,69.3,30.11,NW,306,0.0,9.0,88,0.00,,,0.00,Wunderground v.1.15,2013-10-02 23:30:00,
2013-10-02 19:35:00,73.1,69.3,30.11,NW,306,0.0,9.0,88,0.00,,,0.00,Wunderground v.1.15,2013-10-02 23:35:00,
2013-10-02 19:40:00,73.2,69.1,30.11,NW,306,0.0,9.0,87,0.00,,,0.00,Wunderground v.1.15,2013-10-02 23:40:00,
2013-10-02 19:45:00,73.2,69.1,30.11,NW,306,0.0,9.0,87,0.00,,,0.00,Wunderground v.1.15,2013-10-02 23:45:00,
2013-10-02 19:50:00,73.2,69.1,30.12,NW,305,0.0,9.0,87,0.00,,,0.00,Wunderground v.1.15,2013-10-02 23:50:00,
2013-10-02 19:55:00,73.3,69.2,30.12,West,279,0.0,9.0,87,0.00,,,0.00,Wunderground v.1.15,2013-10-02 23:55:00,
2013-10-02 20:01:00,73.3,69.2,30.12,West,265,0.0,9.0,87,0.00,,,0.00,Wunderground v.1.15,2013-10-03 00:01:00,
2013-10-02 20:05:00,73.2,69.1,30.12,West,271,0.0,9.0,87,0.00,,,0.00,Wunderground v.1.15,2013-10-03 00:05:00,
2013-10-02 20:10:00,73.1,69.0,30.12,West,271,0.0,9.0,87,0.00,,,0.00,Wunderground v.1.15,2013-10-03 00:10:00,
2013-10-02 20:15:00,73.0,68.9,30.12,West,271,0.0,9.0,87,0.00,,,0.00,Wunderground v.1.15,2013-10-03 00:15:00,
2013-10-02 20:20:00,73.0,68.9,30.12,West,271,0.0,9.0,87,0.00,,,0.00,Wunderground v.1.15,2013-10-03 00:20:00,
2013-10-02 20:25:00,73.0,69.2,30.12,West,271,0.0,9.0,88,0.00,,,0.00,Wunderground v.1.15,2013-10-03 00:25:00,
2013-10-02 20:30:00,72.9,69.1,30.12,West,271,0.0,9.0,88,0.00,,,0.00,Wunderground v.1.15,2013-10-03 00:30:00,
2013-10-02 20:35:00,72.9,69.1,30.12,West,271,0.0,9.0,88,0.00,,,0.00,Wunderground v.1.15,2013-10-03 00:35:00,
2013-10-02 20:40:00,72.8,69.0,30.12,West,271,0.0,9.0,88,0.00,,,0.00,Wunderground v.1.15,2013-10-03 00:40:00,
2013-10-02 20:45:00,72.7,68.9,30.12,West,271,0.0,9.0,88,0.00,,,0.00,Wunderground v.1.15,2013-10-03 00:45:00,
2013-10-02 20:50:00,72.6,69.2,30.12,West,271,0.0,9.0,89,0.00,,,0.00,Wunderground v.1.15,2013-10-03 00:50:00,
2013-10-02 20:55:00,72.5,69.1,30.12,West,271,0.0,9.0,89,0.00,,,0.00,Wunderground v.1.15,2013-10-03 00:55:00,
2013-10-02 21:01:00,72.4,69.0,30.12,West,271,0.0,9.0,89,0.00,,,0.00,Wunderground v.1.15,2013-10-03 01:01:00,
2013-10-02 21:10:00,72.2,69.1,30.12,West,271,0.0,9.0,90,0.00,,,0.00,Wunderground v.1.15,2013-10-03 01:10:00,
2013-10-02 21:15:00,72.2,69.1,30.12,West,271,0.0,9.0,90,0.00,,,0.00,Wunderground v.1.15,2013-10-03 01:15:00,
2013-10-02 21:20:00,72.0,68.9,30.12,West,271,0.0,9.0,90,0.00,,,0.00,Wunderground v.1.15,2013-10-03 01:20:00,
2013-10-02 21:25:00,72.0,69.2,30.13,West,271,0.0,9.0,91,0.00,,,0.00,Wunderground v.1.15,2013-10-03 01:25:00,
2013-10-02 21:30:00,71.9,69.1,30.13,West,271,0.0,9.0,91,0.00,,,0.00,Wunderground v.1.15,2013-10-03 01:30:00,
2013-10-02 21:35:00,71.8,69.0,30.13,West,271,0.0,9.0,91,0.00,,,0.00,Wunderground v.1.15,2013-10-03 01:35:00,
2013-10-02 21:40:00,71.7,68.9,30.13,West,271,0.0,9.0,91,0.00,,,0.00,Wunderground v.1.15,2013-10-03 01:40:00,
2013-10-02 21:50:00,71.6,68.8,30.13,West,271,0.0,9.0,91,0.00,,,0.00,Wunderground v.1.15,2013-10-03 01:50:00,
2013-10-02 22:01:00,71.6,68.8,30.13,West,271,0.0,9.0,91,0.00,,,0.00,Wunderground v.1.15,2013-10-03 02:01:00,
2013-10-02 22:05:00,71.6,68.8,30.13,West,271,0.0,9.0,91,0.00,,,0.00,Wunderground v.1.15,2013-10-03 02:05:00,
2013-10-02 22:10:00,71.6,68.8,30.13,West,271,0.0,9.0,91,0.00,,,0.00,Wunderground v.1.15,2013-10-03 02:10:00,
2013-10-02 22:20:00,71.5,69.1,30.14,West,271,0.0,9.0,92,0.00,,,0.00,Wunderground v.1.15,2013-10-03 02:20:00,
2013-10-02 22:25:00,71.4,69.0,30.14,West,271,0.0,9.0,92,0.00,,,0.00,Wunderground v.1.15,2013-10-03 02:25:00,
2013-10-02 22:30:00,71.3,68.9,30.14,West,271,0.0,9.0,92,0.00,,,0.00,Wunderground v.1.15,2013-10-03 02:30:00,
2013-10-02 22:35:00,71.3,68.9,30.14,West,271,0.0,9.0,92,0.00,,,0.00,Wunderground v.1.15,2013-10-03 02:35:00,
2013-10-02 22:40:00,71.3,68.9,30.13,West,271,0.0,9.0,92,0.00,,,0.00,Wunderground v.1.15,2013-10-03 02:40:00,
2013-10-02 22:45:00,71.3,68.9,30.14,West,271,0.0,9.0,92,0.00,,,0.00,Wunderground v.1.15,2013-10-03 02:45:00,
2013-10-02 22:50:00,71.3,68.9,30.14,West,271,0.0,9.0,92,0.00,,,0.00,Wunderground v.1.15,2013-10-03 02:50:00,
2013-10-02 23:01:00,71.2,68.8,30.14,West,271,0.0,9.0,92,0.00,,,0.00,Wunderground v.1.15,2013-10-03 03:01:00,
2013-10-02 23:05:00,71.2,68.8,30.14,West,271,0.0,9.0,92,0.00,,,0.00,Wunderground v.1.15,2013-10-03 03:05:00,
2013-10-02 23:10:00,71.1,68.7,30.14,West,271,0.0,9.0,92,0.00,,,0.00,Wunderground v.1.15,2013-10-03 03:10:00,
2013-10-02 23:20:00,71.0,68.6,30.14,West,271,0.0,9.0,92,0.00,,,0.00,Wunderground v.1.15,2013-10-03 03:20:00,
2013-10-02 23:25:00,71.0,68.6,30.14,West,271,0.0,9.0,92,0.00,,,0.00,Wunderground v.1.15,2013-10-03 03:25:00,
2013-10-02 23:30:00,71.0,68.9,30.14,West,271,0.0,9.0,93,0.00,,,0.00,Wunderground v.1.15,2013-10-03 03:30:00,
2013-10-02 23:35:00,70.8,68.7,30.14,West,271,0.0,9.0,93,0.00,,,0.00,Wunderground v.1.15,2013-10-03 03:35:00,
2013-10-02 23:40:00,70.5,68.4,30.14,West,271,0.0,9.0,93,0.00,,,0.00,Wunderground v.1.15,2013-10-03 03:40:00,
2013-10-02 23:45:00,70.3,68.5,30.14,West,271,0.0,9.0,94,0.00,,,0.00,Wunderground v.1.15,2013-10-03 03:45:00,
2013-10-02 23:55:00,70.1,68.6,30.14,West,271,0.0,9.0,95,0.00,,,0.00,Wunderground v.1.15,2013-10-03 03:55:00,